createdAt,value
2022-11-15T00:01:40.453Z,3.22
2022-11-15T00:05:08.142Z,3.24
2022-11-15T00:08:35.650Z,3.23
2022-11-15T00:12:03.131Z,3.19
2022-11-15T00:15:32.435Z,3.16
2022-11-15T00:19:00.292Z,3.16
2022-11-15T00:22:32.965Z,3.05
2022-11-15T00:26:00.218Z,2.99
2022-11-15T00:29:27.559Z,2.96
2022-11-15T00:32:56.377Z,2.90
2022-11-15T00:36:23.680Z,2.84
2022-11-15T00:39:50.868Z,2.79
2022-11-15T00:43:18.206Z,2.76
2022-11-15T00:46:45.236Z,2.87
2022-11-15T00:50:15.561Z,2.94
2022-11-15T00:53:42.855Z,2.68
2022-11-15T00:57:10.159Z,2.63
2022-11-15T01:00:37.154Z,2.62
2022-11-15T01:04:04.364Z,2.52
2022-11-15T01:07:33.181Z,2.60
2022-11-15T01:11:03.662Z,2.51
2022-11-15T01:14:31.016Z,2.45
2022-11-15T01:17:58.361Z,2.39
2022-11-15T01:21:25.346Z,2.47
2022-11-15T01:24:54.168Z,2.46
2022-11-15T01:28:21.647Z,2.46
2022-11-15T01:31:48.938Z,2.44
2022-11-15T01:35:16.295Z,2.45
2022-11-15T01:38:43.611Z,2.44
2022-11-15T01:42:15.525Z,2.46
2022-11-15T01:45:42.745Z,2.39
2022-11-15T01:49:16.296Z,2.43
2022-11-15T01:52:44.331Z,2.44
2022-11-15T01:56:17.121Z,2.40
2022-11-15T01:59:48.532Z,2.47
2022-11-15T02:03:16.886Z,2.46
2022-11-15T02:06:46.329Z,2.42
2022-11-15T02:10:19.954Z,2.48
2022-11-15T02:13:47.920Z,2.53
2022-11-15T02:17:31.646Z,2.40
2022-11-15T02:21:19.391Z,2.45
2022-11-15T02:25:16.442Z,2.51
2022-11-15T02:28:53.907Z,2.59
2022-11-15T02:32:30.517Z,2.53
2022-11-15T02:36:02.961Z,2.66
2022-11-15T02:39:38.031Z,2.70
2022-11-15T02:44:01.196Z,2.68
2022-11-15T02:47:32.175Z,2.70
2022-11-15T02:51:00.170Z,2.71
2022-11-15T02:54:29.074Z,2.68
2022-11-15T02:58:11.728Z,2.61
2022-11-15T03:01:53.918Z,2.65
2022-11-15T03:05:32.558Z,2.54
2022-11-15T03:09:10.110Z,2.64
2022-11-15T03:12:43.397Z,2.54
2022-11-15T03:16:17.527Z,2.65
2022-11-15T03:19:48.631Z,2.47
2022-11-15T03:23:19.133Z,2.25
2022-11-15T03:26:50.080Z,2.32
2022-11-15T03:30:18.228Z,2.33
2022-11-15T03:33:46.021Z,2.37
2022-11-15T03:37:15.329Z,2.20
2022-11-15T03:40:47.419Z,1.98
2022-11-15T03:44:23.120Z,1.91
2022-11-15T03:47:55.733Z,1.89
2022-11-15T03:51:23.445Z,1.83
2022-11-15T03:54:52.451Z,1.82
2022-11-15T03:58:21.073Z,1.68
2022-11-15T04:01:48.928Z,1.66
2022-11-15T04:05:16.096Z,1.63
2022-11-15T04:08:43.437Z,1.67
2022-11-15T04:12:10.811Z,1.66
2022-11-15T04:15:39.505Z,1.51
2022-11-15T04:19:24.300Z,1.51
2022-11-15T04:23:11.234Z,1.45
2022-11-15T04:26:38.152Z,1.45
2022-11-15T04:30:06.655Z,1.47
2022-11-15T04:33:35.201Z,1.40
2022-11-15T04:37:14.933Z,1.20
2022-11-15T04:40:41.862Z,1.33
2022-11-15T04:44:09.028Z,1.43
2022-11-15T04:47:36.171Z,1.34
2022-11-15T04:51:04.851Z,1.31
2022-11-15T04:54:32.570Z,1.21
2022-11-15T04:58:03.869Z,1.20
2022-11-15T05:01:31.068Z,1.41
2022-11-15T05:04:57.196Z,1.26
2022-11-15T05:08:25.852Z,1.20
2022-11-15T05:11:52.820Z,1.17
2022-11-15T05:15:20.146Z,1.19
2022-11-15T05:18:47.471Z,1.14
2022-11-15T05:22:15.109Z,1.12
2022-11-15T05:25:43.823Z,1.09
2022-11-15T05:29:13.442Z,1.08
2022-11-15T05:32:41.853Z,1.12
2022-11-15T05:36:14.224Z,0.93
2022-11-15T05:39:41.406Z,0.87
2022-11-15T05:43:11.786Z,0.83
2022-11-15T05:46:41.280Z,0.89
2022-11-15T05:50:09.235Z,0.93
2022-11-15T05:53:36.893Z,0.90
2022-11-15T05:57:05.575Z,0.84
2022-11-15T06:00:34.079Z,0.88
2022-11-15T06:04:01.498Z,0.89
2022-11-15T06:07:28.946Z,0.87
2022-11-15T06:10:56.237Z,0.91
2022-11-15T06:14:23.562Z,1.10
2022-11-15T06:17:52.090Z,1.02
2022-11-15T06:21:19.307Z,1.11
2022-11-15T06:24:46.792Z,0.94
2022-11-15T06:28:13.696Z,0.85
2022-11-15T06:31:40.989Z,0.93
2022-11-15T06:35:09.989Z,0.87
2022-11-15T06:38:37.408Z,1.12
2022-11-15T06:42:04.749Z,1.12
2022-11-15T06:45:32.325Z,1.13
2022-11-15T06:48:59.277Z,1.07
2022-11-15T06:52:27.789Z,1.09
2022-11-15T06:55:55.883Z,1.23
2022-11-15T06:59:23.346Z,1.40
2022-11-15T07:02:51.075Z,1.53
2022-11-15T07:06:18.258Z,1.57
2022-11-15T07:09:46.937Z,1.65
2022-11-15T07:13:15.682Z,1.86
2022-11-15T07:16:43.297Z,1.92
2022-11-15T07:20:11.166Z,2.12
2022-11-15T07:23:39.997Z,2.17
2022-11-15T07:27:08.885Z,2.33
2022-11-15T07:30:37.335Z,2.59
2022-11-15T07:34:06.128Z,2.98
2022-11-15T07:37:33.516Z,3.13
2022-11-15T07:41:02.065Z,3.18
2022-11-15T07:44:30.765Z,2.99
2022-11-15T07:47:58.358Z,3.23
2022-11-15T07:51:25.909Z,3.48
2022-11-15T07:54:53.023Z,3.86
2022-11-15T07:58:20.298Z,4.12
2022-11-15T08:01:48.990Z,4.34
2022-11-15T08:05:16.649Z,4.42
2022-11-15T08:08:43.624Z,4.60
2022-11-15T08:12:10.858Z,4.87
2022-11-15T08:15:38.762Z,5.10
2022-11-15T08:19:07.486Z,5.28
2022-11-15T08:22:35.526Z,5.54
2022-11-15T08:26:04.259Z,5.76
2022-11-15T08:29:31.419Z,5.95
2022-11-15T08:33:00.473Z,6.21
2022-11-15T08:36:34.766Z,6.46
2022-11-15T08:40:10.652Z,6.62
2022-11-15T08:43:37.761Z,6.71
2022-11-15T08:47:05.135Z,6.78
2022-11-15T08:50:32.800Z,6.89
2022-11-15T08:54:01.519Z,7.03
2022-11-15T08:57:31.840Z,7.20
2022-11-15T09:00:58.965Z,7.21
2022-11-15T09:04:26.047Z,7.24
2022-11-15T09:07:56.006Z,7.40
2022-11-15T09:11:24.597Z,7.66
2022-11-15T09:14:51.565Z,7.68
2022-11-15T09:18:20.218Z,7.70
2022-11-15T09:21:49.441Z,7.64
2022-11-15T09:25:16.563Z,7.74
2022-11-15T09:28:45.174Z,7.79
2022-11-15T09:32:12.691Z,7.95
2022-11-15T09:35:40.188Z,8.03
2022-11-15T09:39:07.398Z,8.33
2022-11-15T09:42:57.963Z,8.59
2022-11-15T09:46:39.960Z,8.84
2022-11-15T09:50:12.229Z,8.91
2022-11-15T09:54:23.856Z,9.14
2022-11-15T09:57:16.360Z,9.30
2022-11-15T10:00:49.867Z,9.38
2022-11-15T10:04:00.610Z,9.53
2022-11-15T10:07:20.691Z,9.63
2022-11-15T10:10:38.734Z,9.77
2022-11-15T10:13:50.634Z,9.80
2022-11-15T10:17:46.904Z,9.85
2022-11-15T10:21:02.122Z,9.86
2022-11-15T10:24:14.743Z,9.93
2022-11-15T10:27:25.649Z,9.99
2022-11-15T10:30:38.339Z,10.09
2022-11-15T10:33:46.567Z,10.15
2022-11-15T10:37:02.705Z,10.24
2022-11-15T10:40:21.769Z,10.37
2022-11-15T10:43:29.980Z,10.53
2022-11-15T10:46:48.621Z,10.63
2022-11-15T10:50:09.479Z,10.72
2022-11-15T10:53:26.369Z,10.87
2022-11-15T10:56:34.619Z,10.85
2022-11-15T10:59:49.346Z,10.81
2022-11-15T11:03:04.182Z,10.92
2022-11-15T11:06:16.400Z,10.94
2022-11-15T11:09:34.376Z,10.97
2022-11-15T11:12:42.683Z,11.00
2022-11-15T11:15:59.893Z,11.08
2022-11-15T11:19:29.927Z,11.24
2022-11-15T11:22:57.738Z,11.22
2022-11-15T11:26:37.212Z,11.34
2022-11-15T11:30:04.645Z,11.45
2022-11-15T11:33:22.299Z,11.44
2022-11-15T11:36:46.255Z,11.42
2022-11-15T11:40:11.059Z,11.50
2022-11-15T11:43:39.202Z,11.50
2022-11-15T11:46:57.185Z,11.50
2022-11-15T11:50:18.221Z,11.56
2022-11-15T11:53:33.357Z,11.62
2022-11-15T11:56:45.951Z,11.58
2022-11-15T12:00:04.382Z,11.58
2022-11-15T12:03:31.342Z,11.79
2022-11-15T12:06:47.709Z,11.77
2022-11-15T12:10:03.590Z,11.78
2022-11-15T12:13:18.793Z,11.82
2022-11-15T12:16:31.946Z,11.81
2022-11-15T12:19:41.405Z,11.79
2022-11-15T12:22:58.941Z,11.80
2022-11-15T12:26:13.548Z,11.82
2022-11-15T12:29:29.989Z,11.82
2022-11-15T12:32:51.610Z,11.89
2022-11-15T12:36:04.096Z,12.03
2022-11-15T12:39:14.130Z,12.03
2022-11-15T12:42:43.816Z,12.12
2022-11-15T12:45:52.108Z,12.04
2022-11-15T12:49:03.843Z,12.12
2022-11-15T12:52:12.455Z,12.06
2022-11-15T12:55:35.171Z,12.06
2022-11-15T12:58:47.378Z,12.22
2022-11-15T13:02:02.493Z,12.28
2022-11-15T13:06:10.736Z,12.32
2022-11-15T13:09:56.378Z,12.38
2022-11-15T13:13:09.404Z,12.47
2022-11-15T13:16:22.925Z,12.84
2022-11-15T13:19:31.579Z,12.96
2022-11-15T13:22:53.261Z,12.95
2022-11-15T13:26:17.463Z,12.74
2022-11-15T13:29:25.904Z,12.55
2022-11-15T13:32:34.468Z,12.50
2022-11-15T13:35:47.286Z,12.36
2022-11-15T13:39:06.914Z,12.33
2022-11-15T13:42:18.516Z,12.28
2022-11-15T13:45:28.303Z,12.23
2022-11-15T13:48:37.098Z,12.17
2022-11-15T13:51:51.423Z,12.22
2022-11-15T13:55:06.981Z,12.17
2022-11-15T13:58:17.879Z,12.17
2022-11-15T14:01:34.052Z,12.16
2022-11-15T14:04:51.635Z,12.04
2022-11-15T14:08:03.628Z,11.98
2022-11-15T14:11:19.032Z,11.89
2022-11-15T14:14:29.400Z,11.77
2022-11-15T14:17:45.729Z,11.61
2022-11-15T14:21:09.792Z,11.48
2022-11-15T14:24:19.903Z,11.41
2022-11-15T14:27:31.216Z,11.50
2022-11-15T14:30:41.505Z,11.53
2022-11-15T14:33:50.402Z,11.33
2022-11-15T14:36:58.636Z,11.18
2022-11-15T14:40:10.595Z,11.17
2022-11-15T14:43:20.463Z,11.17
2022-11-15T14:46:28.640Z,10.97
2022-11-15T14:49:36.892Z,10.82
2022-11-15T14:52:45.719Z,11.00
2022-11-15T14:55:54.035Z,10.66
2022-11-15T14:59:03.743Z,10.52
2022-11-15T15:02:20.040Z,10.43
2022-11-15T15:05:34.239Z,10.27
2022-11-15T15:08:42.782Z,10.25
2022-11-15T15:11:50.997Z,9.94
2022-11-15T15:15:00.566Z,9.71
2022-11-15T15:18:09.617Z,9.55
2022-11-15T15:21:24.477Z,9.34
2022-11-15T15:24:32.738Z,9.19
2022-11-15T15:27:40.997Z,9.00
2022-11-15T15:30:51.477Z,8.85
2022-11-15T15:33:59.869Z,8.69
2022-11-15T15:37:27.378Z,8.56
2022-11-15T15:40:35.955Z,8.38
2022-11-15T15:43:44.890Z,8.25
2022-11-15T15:46:54.827Z,8.31
2022-11-15T15:50:03.300Z,8.03
2022-11-15T15:53:13.676Z,7.83
2022-11-15T15:56:21.958Z,7.72
2022-11-15T15:59:30.219Z,7.57
2022-11-15T16:02:40.767Z,7.48
2022-11-15T16:05:49.206Z,7.29
2022-11-15T16:09:13.951Z,7.11
2022-11-15T16:12:22.888Z,7.01
2022-11-15T16:15:34.201Z,7.03
2022-11-15T16:18:44.329Z,7.26
2022-11-15T16:21:53.065Z,7.20
2022-11-15T16:25:01.306Z,6.96
2022-11-15T16:28:19.913Z,6.89
2022-11-15T16:31:28.331Z,6.89
2022-11-15T16:34:41.858Z,6.85
2022-11-15T16:37:52.073Z,6.82
2022-11-15T16:41:01.486Z,6.79
2022-11-15T16:44:09.700Z,6.73
2022-11-15T16:47:20.390Z,6.74
2022-11-15T16:50:35.238Z,6.73
2022-11-15T16:53:44.304Z,6.70
2022-11-15T16:56:53.728Z,6.75
2022-11-15T17:00:01.942Z,6.74
2022-11-15T17:03:10.286Z,6.71
2022-11-15T17:06:20.492Z,6.69
2022-11-15T17:09:28.785Z,6.68
2022-11-15T17:12:37.774Z,6.68
2022-11-15T17:15:46.026Z,6.68
2022-11-15T17:18:54.554Z,6.65
2022-11-15T17:22:04.274Z,6.57
2022-11-15T17:25:12.915Z,6.57
2022-11-15T17:28:21.251Z,6.50
2022-11-15T17:31:33.696Z,6.44
2022-11-15T17:34:42.230Z,6.42
2022-11-15T17:37:52.734Z,6.37
2022-11-15T17:41:05.616Z,6.34
2022-11-15T17:44:14.625Z,6.39
2022-11-15T17:47:24.388Z,6.39
2022-11-15T17:50:32.726Z,6.34
2022-11-15T17:53:45.203Z,6.48
2022-11-15T17:56:54.220Z,6.38
2022-11-15T18:00:03.436Z,6.04
2022-11-15T18:03:12.822Z,5.88
2022-11-15T18:06:23.476Z,5.88
2022-11-15T18:09:33.266Z,5.92
2022-11-15T18:12:41.841Z,5.85
2022-11-15T18:15:56.216Z,5.80
2022-11-15T18:19:08.928Z,5.82
2022-11-15T18:22:18.453Z,5.86
2022-11-15T18:25:28.822Z,5.83
2022-11-15T18:28:41.927Z,5.86
2022-11-15T18:31:50.605Z,5.87
2022-11-15T18:34:59.428Z,5.92
2022-11-15T18:38:07.587Z,5.99
2022-11-15T18:41:20.858Z,6.01
2022-11-15T18:44:30.118Z,5.96
2022-11-15T18:47:38.665Z,6.01
2022-11-15T18:50:50.440Z,5.99
2022-11-15T18:54:03.794Z,5.99
2022-11-15T18:57:14.242Z,6.06
2022-11-15T19:00:22.855Z,6.03
2022-11-15T19:03:34.512Z,6.09
2022-11-15T19:06:46.377Z,6.13
2022-11-15T19:09:54.816Z,6.16
2022-11-15T19:13:05.154Z,6.13
2022-11-15T19:16:16.736Z,6.09
2022-11-15T19:19:28.323Z,6.06
2022-11-15T19:22:36.565Z,5.97
2022-11-15T19:25:44.889Z,5.93
2022-11-15T19:28:57.970Z,5.87
2022-11-15T19:32:07.835Z,5.83
2022-11-15T19:35:16.883Z,5.78
2022-11-15T19:38:25.209Z,5.82
2022-11-15T19:41:34.532Z,5.75
2022-11-15T19:44:44.663Z,5.66
2022-11-15T19:47:53.061Z,5.75
2022-11-15T19:51:04.906Z,5.68
2022-11-15T19:54:16.868Z,5.69
2022-11-15T19:57:27.147Z,5.69
2022-11-15T20:00:37.435Z,5.71
2022-11-15T20:03:47.025Z,5.79
2022-11-15T20:06:55.646Z,6.00
2022-11-15T20:10:05.025Z,6.03
2022-11-15T20:13:14.803Z,5.96
2022-11-15T20:16:25.360Z,5.86
2022-11-15T20:19:36.222Z,5.94
2022-11-15T20:22:44.733Z,5.95
2022-11-15T20:25:53.967Z,6.03
2022-11-15T20:29:03.536Z,6.10
2022-11-15T20:32:14.384Z,6.14
2022-11-15T20:35:22.854Z,6.25
2022-11-15T20:38:31.874Z,6.22
2022-11-15T20:41:42.003Z,6.30
2022-11-15T20:44:50.242Z,6.37
2022-11-15T20:48:00.678Z,6.25
2022-11-15T20:51:12.854Z,6.44
2022-11-15T20:54:21.215Z,6.50
2022-11-15T20:57:30.050Z,6.32
2022-11-15T21:00:39.051Z,6.12
2022-11-15T21:03:48.937Z,6.07
2022-11-15T21:06:58.379Z,6.17
2022-11-15T21:10:24.860Z,6.14
2022-11-15T21:13:33.354Z,6.18
2022-11-15T21:16:41.790Z,6.19
2022-11-15T21:19:51.444Z,6.29
2022-11-15T21:22:59.875Z,6.34
2022-11-15T21:26:08.078Z,6.30
2022-11-15T21:29:17.093Z,6.37
2022-11-15T21:32:28.913Z,6.32
2022-11-15T21:35:38.550Z,6.36
2022-11-15T21:38:46.898Z,6.43
2022-11-15T21:41:56.344Z,6.57
2022-11-15T21:45:05.820Z,6.42
2022-11-15T21:48:14.199Z,6.35
2022-11-15T21:51:25.328Z,6.31
2022-11-15T21:54:33.667Z,6.31
2022-11-15T21:57:42.053Z,6.34
2022-11-15T22:01:09.072Z,6.25
2022-11-15T22:04:17.555Z,6.17
2022-11-15T22:07:27.259Z,6.11
2022-11-15T22:10:35.516Z,6.15
2022-11-15T22:13:44.295Z,6.17
2022-11-15T22:16:52.539Z,6.07
2022-11-15T22:20:11.594Z,6.05
2022-11-15T22:23:34.210Z,5.90
2022-11-15T22:26:42.445Z,5.76
2022-11-15T22:29:50.643Z,5.74
2022-11-15T22:32:58.924Z,5.69
2022-11-15T22:36:09.096Z,5.60
2022-11-15T22:39:18.825Z,5.53
2022-11-15T22:42:27.126Z,5.49
2022-11-15T22:45:35.889Z,5.37
2022-11-15T22:48:47.318Z,5.53
2022-11-15T22:51:55.608Z,5.59
2022-11-15T22:55:06.482Z,5.60
2022-11-15T22:58:14.846Z,5.75
2022-11-15T23:01:23.557Z,5.84
2022-11-15T23:04:31.885Z,5.89
2022-11-15T23:07:40.093Z,5.76
2022-11-15T23:11:07.659Z,5.82
2022-11-15T23:14:16.130Z,5.75
2022-11-15T23:17:24.619Z,5.58
2022-11-15T23:20:43.005Z,5.33
2022-11-15T23:23:51.877Z,5.31
2022-11-15T23:27:04.523Z,5.29
2022-11-15T23:30:33.332Z,5.34
2022-11-15T23:33:59.543Z,5.44
2022-11-15T23:37:10.323Z,5.53
2022-11-15T23:40:19.253Z,5.70
2022-11-15T23:43:29.130Z,5.88
2022-11-15T23:46:37.491Z,5.82
2022-11-15T23:49:45.759Z,5.86
2022-11-15T23:52:54.005Z,5.89
2022-11-15T23:56:06.067Z,5.80
2022-11-15T23:59:16.051Z,5.79
